createdAt,value
2024-04-30T00:17:47.234Z,19.4
2024-04-30T00:37:47.182Z,19.4
2024-04-30T00:57:47.150Z,19.3
2024-04-30T01:17:47.148Z,19.3
2024-04-30T01:37:47.085Z,19.3
2024-04-30T01:57:47.086Z,19.3
2024-04-30T02:17:47.025Z,19.3
2024-04-30T02:37:47.014Z,19.3
2024-04-30T02:57:47.009Z,19.3
2024-04-30T03:17:46.994Z,19.3
2024-04-30T03:37:46.972Z,19.3
2024-04-30T03:57:46.940Z,19.2
2024-04-30T04:17:46.883Z,19.2
2024-04-30T04:37:46.871Z,19.2
2024-04-30T04:57:46.862Z,19.2
2024-04-30T05:17:46.830Z,19.2
2024-04-30T05:37:46.839Z,19.2
2024-04-30T05:57:46.786Z,19.2
2024-04-30T06:17:46.887Z,19.5
2024-04-30T06:37:46.734Z,19.6
2024-04-30T06:57:46.721Z,19.8
2024-04-30T07:17:46.742Z,19.8
2024-04-30T07:37:46.627Z,19.9
2024-04-30T07:57:46.661Z,20.0
2024-04-30T08:17:46.609Z,20.1
2024-04-30T08:37:46.578Z,20.1
2024-04-30T08:57:46.567Z,20.2
2024-04-30T09:17:46.519Z,20.2
2024-04-30T09:37:46.504Z,20.3
2024-04-30T09:57:46.691Z,20.3
2024-04-30T10:17:46.684Z,20.4
2024-04-30T10:37:46.442Z,20.4
2024-04-30T10:57:46.439Z,20.4
2024-04-30T11:17:46.384Z,20.5
2024-04-30T11:37:46.365Z,20.6
2024-04-30T11:57:46.342Z,20.7
2024-04-30T12:17:46.307Z,20.7
2024-04-30T12:37:46.274Z,20.6
2024-04-30T12:57:46.355Z,20.7
2024-04-30T13:17:46.231Z,20.8
2024-04-30T13:37:46.213Z,20.9
2024-04-30T13:57:46.174Z,20.9
2024-04-30T14:17:46.185Z,20.8
2024-04-30T14:37:46.211Z,20.6
2024-04-30T14:57:46.120Z,20.5
2024-04-30T15:17:46.077Z,20.5
2024-04-30T15:37:46.057Z,20.4
2024-04-30T15:57:46.004Z,20.4
2024-04-30T16:17:46.066Z,20.3
2024-04-30T16:37:46.050Z,20.3
2024-04-30T16:57:46.086Z,20.2
2024-04-30T17:17:46.145Z,20.2
2024-04-30T17:37:45.917Z,20.2
2024-04-30T17:57:46.038Z,20.1
2024-04-30T18:17:46.358Z,20.1
2024-04-30T18:37:45.787Z,20.1
2024-04-30T18:57:45.808Z,20.1
2024-04-30T19:17:45.779Z,20.0
2024-04-30T19:37:45.747Z,20.0
2024-04-30T19:57:45.729Z,20.0
2024-04-30T20:17:45.696Z,20.1
2024-04-30T20:37:45.740Z,20.3
2024-04-30T20:57:45.633Z,20.4
2024-04-30T21:17:45.589Z,20.4
2024-04-30T21:37:45.747Z,20.2
2024-04-30T21:57:45.566Z,20.1
2024-04-30T22:17:45.550Z,20.0
2024-04-30T22:37:45.576Z,20.0
2024-04-30T22:57:45.477Z,19.9
2024-04-30T23:17:45.426Z,19.8
2024-04-30T23:37:45.413Z,19.8
2024-04-30T23:57:45.403Z,19.8
